Alpena, Arkansas
Current Conditions -  °F | °C
As of 12:53 PM on Saturday 25 Oct 2014 (Local Time) from KHRO Reporting Station
Clear Clear  
Wind Chill: 81°   Ceiling: Unl
Heat Index: 82°   Visibility: 10mi
Dew Point: 62°   Wind: 6mph
Humidity: 52%   Direction: 300°WNW
Pressure: 30.09"   Gusts: NA
Location:  36.29°N, 93.29°W
Report Text: KHRO 251753Z AUTO 30005KT 10SM CLR 27/17 A3009 RMK AO2 SLP178 T02720167 10272 20189 58006
Loading
Personal Weather Stations






























Interactive Weather Map
Tropical Storm Tracking
New forecast layout! Learn more

10-Day Weather Forecast

Advertisements
Track Severe Weather on mobile